createdAt,value
2022-10-14T00:01:20.539Z,32.25
2022-10-14T00:04:06.360Z,33.20
2022-10-14T00:06:51.619Z,37.67
2022-10-14T00:09:36.857Z,37.03
2022-10-14T00:12:23.726Z,35.50
2022-10-14T00:15:09.272Z,35.63
2022-10-14T00:17:54.282Z,39.17
2022-10-14T00:20:39.739Z,36.92
2022-10-14T00:23:25.260Z,37.15
2022-10-14T00:26:20.568Z,37.83
2022-10-14T00:29:11.151Z,41.67
2022-10-14T00:31:56.327Z,33.60
2022-10-14T00:34:41.795Z,32.83
2022-10-14T00:37:28.275Z,31.27
2022-10-14T00:40:13.549Z,33.20
2022-10-14T00:42:58.869Z,35.08
2022-10-14T00:45:44.300Z,35.00
2022-10-14T00:48:29.675Z,33.42
2022-10-14T00:51:18.399Z,38.25
2022-10-14T00:54:05.281Z,37.78
2022-10-14T00:56:51.509Z,36.05
2022-10-14T00:59:38.402Z,35.35
2022-10-14T01:02:24.112Z,34.40
2022-10-14T01:05:12.195Z,33.45
2022-10-14T01:08:03.610Z,34.75
2022-10-14T01:11:05.652Z,32.47
2022-10-14T01:14:21.424Z,35.00
2022-10-14T01:17:12.905Z,30.90
2022-10-14T01:20:22.862Z,37.58
2022-10-14T01:23:30.072Z,31.52
2022-10-14T01:26:36.162Z,33.70
2022-10-14T01:29:46.146Z,31.55
2022-10-14T01:32:48.003Z,34.88
2022-10-14T01:35:43.406Z,32.85
2022-10-14T01:38:44.870Z,27.83
2022-10-14T01:41:36.715Z,30.83
2022-10-14T01:44:25.092Z,33.15
2022-10-14T01:47:13.473Z,35.15
2022-10-14T01:50:09.658Z,30.10
2022-10-14T01:53:01.610Z,33.90
2022-10-14T01:55:49.198Z,34.63
2022-10-14T01:58:37.672Z,33.70
2022-10-14T02:01:24.837Z,36.60
2022-10-14T02:04:19.397Z,32.10
2022-10-14T02:07:23.373Z,35.88
2022-10-14T02:10:22.519Z,34.17
2022-10-14T02:13:24.133Z,36.97
2022-10-14T02:16:23.312Z,34.17
2022-10-14T02:19:14.440Z,36.47
2022-10-14T02:22:31.323Z,31.85
2022-10-14T02:25:37.025Z,28.55
2022-10-14T02:28:27.119Z,32.33
2022-10-14T02:31:18.158Z,30.95
2022-10-14T02:34:10.453Z,34.90
2022-10-14T02:36:56.462Z,35.92
2022-10-14T02:39:49.267Z,34.60
2022-10-14T02:42:34.890Z,31.33
2022-10-14T02:45:26.122Z,31.77
2022-10-14T02:48:12.727Z,31.42
2022-10-14T02:50:57.919Z,34.45
2022-10-14T02:53:43.222Z,32.58
2022-10-14T02:56:29.107Z,34.03
2022-10-14T02:59:14.254Z,33.55
2022-10-14T03:02:00.339Z,35.78
2022-10-14T03:04:46.778Z,31.88
2022-10-14T03:07:32.347Z,31.05
2022-10-14T03:10:21.619Z,29.77
2022-10-14T03:13:07.315Z,31.05
2022-10-14T03:15:59.083Z,30.40
2022-10-14T03:18:45.103Z,30.25
2022-10-14T03:21:42.880Z,29.33
2022-10-14T03:24:34.414Z,30.25
2022-10-14T03:27:40.986Z,32.53
2022-10-14T03:30:30.111Z,27.05
2022-10-14T03:33:24.506Z,31.35
2022-10-14T03:36:17.608Z,30.63
2022-10-14T03:39:05.801Z,32.67
2022-10-14T03:42:10.976Z,36.13
2022-10-14T03:45:01.700Z,30.05
2022-10-14T03:47:49.237Z,29.42
2022-10-14T03:50:34.834Z,29.38
2022-10-14T03:53:20.258Z,27.73
2022-10-14T03:56:06.586Z,31.92
2022-10-14T03:58:53.952Z,31.25
2022-10-14T04:01:40.636Z,32.03
2022-10-14T04:04:36.530Z,38.05
2022-10-14T04:07:23.093Z,28.52
2022-10-14T04:10:14.226Z,37.58
2022-10-14T04:13:04.971Z,32.90
2022-10-14T04:15:55.339Z,36.35
2022-10-14T04:18:53.961Z,31.63
2022-10-14T04:21:41.026Z,30.55
2022-10-14T04:24:27.762Z,33.00
2022-10-14T04:27:17.916Z,34.58
2022-10-14T04:30:08.102Z,32.97
2022-10-14T04:33:04.856Z,30.35
2022-10-14T04:35:51.588Z,31.10
2022-10-14T04:38:45.029Z,30.05
2022-10-14T04:41:30.795Z,27.45
2022-10-14T04:44:19.442Z,33.70
2022-10-14T04:47:08.824Z,32.05
2022-10-14T04:49:55.957Z,34.25
2022-10-14T04:52:41.742Z,35.50
2022-10-14T04:55:30.900Z,33.25
2022-10-14T04:58:16.969Z,28.17
2022-10-14T05:01:05.074Z,30.10
2022-10-14T05:03:55.359Z,32.92
2022-10-14T05:06:40.867Z,33.42
2022-10-14T05:09:28.608Z,30.77
2022-10-14T05:12:14.635Z,30.95
2022-10-14T05:15:07.254Z,32.95
2022-10-14T05:17:59.449Z,30.38
2022-10-14T05:23:54.115Z,36.70
2022-10-14T05:26:39.294Z,32.63
2022-10-14T05:29:28.434Z,28.05
2022-10-14T05:32:15.771Z,30.98
2022-10-14T05:35:04.966Z,36.35
2022-10-14T05:38:00.654Z,31.27
2022-10-14T05:40:54.502Z,29.90
2022-10-14T05:43:40.302Z,32.70
2022-10-14T05:46:25.297Z,32.55
2022-10-14T05:49:14.252Z,35.25
2022-10-14T05:52:00.467Z,35.95
2022-10-14T05:54:45.841Z,28.95
2022-10-14T06:00:25.632Z,33.63
2022-10-14T06:03:18.979Z,30.15
2022-10-14T06:06:04.483Z,43.15
2022-10-14T06:08:49.731Z,42.15
2022-10-14T06:11:35.268Z,33.00
2022-10-14T06:14:20.586Z,36.13
2022-10-14T06:17:06.880Z,38.30
2022-10-14T06:19:52.253Z,45.75
2022-10-14T06:22:37.712Z,37.70
2022-10-14T06:25:22.906Z,32.50
2022-10-14T06:28:08.757Z,28.88
2022-10-14T06:30:55.022Z,33.42
2022-10-14T06:33:40.210Z,33.65
2022-10-14T06:36:25.382Z,27.70
2022-10-14T06:39:11.007Z,34.67
2022-10-14T06:41:56.184Z,37.78
2022-10-14T06:44:41.925Z,30.95
2022-10-14T06:47:27.871Z,24.95
2022-10-14T06:50:13.170Z,37.55
2022-10-14T06:52:58.590Z,31.77
2022-10-14T06:55:44.374Z,27.13
2022-10-14T06:58:30.898Z,30.58
2022-10-14T07:01:16.168Z,37.22
2022-10-14T07:04:01.786Z,33.83
2022-10-14T07:06:49.955Z,33.08
2022-10-14T07:09:35.115Z,26.33
2022-10-14T07:12:20.664Z,31.45
2022-10-14T07:15:06.708Z,28.45
2022-10-14T07:17:51.917Z,34.30
2022-10-14T07:20:37.266Z,34.05
2022-10-14T07:23:22.722Z,43.80
2022-10-14T07:26:08.083Z,31.77
2022-10-14T07:28:53.448Z,30.63
2022-10-14T07:31:38.573Z,32.70
2022-10-14T07:34:23.617Z,34.15
2022-10-14T07:37:09.080Z,29.60
2022-10-14T07:39:54.586Z,34.63
2022-10-14T07:42:40.238Z,34.50
2022-10-14T07:45:25.754Z,30.45
2022-10-14T07:48:10.991Z,36.03
2022-10-14T07:50:56.555Z,32.40
2022-10-14T07:53:41.725Z,33.00
2022-10-14T07:56:27.634Z,39.65
2022-10-14T07:59:13.125Z,37.83
2022-10-14T08:01:59.140Z,38.10
2022-10-14T08:04:44.922Z,39.55
2022-10-14T08:07:30.990Z,30.80
2022-10-14T08:10:16.222Z,30.65
2022-10-14T08:13:01.422Z,37.30
2022-10-14T08:15:46.617Z,37.15
2022-10-14T08:18:31.997Z,34.25
2022-10-14T08:21:19.697Z,30.55
2022-10-14T08:24:17.340Z,30.85
2022-10-14T08:27:02.896Z,32.33
2022-10-14T08:29:48.214Z,39.20
2022-10-14T08:32:33.353Z,32.17
2022-10-14T08:35:19.237Z,41.78
2022-10-14T08:38:04.466Z,35.55
2022-10-14T08:41:02.907Z,42.20
2022-10-14T08:44:13.309Z,32.47
2022-10-14T08:47:04.523Z,33.15
2022-10-14T08:49:58.509Z,27.23
2022-10-14T08:52:52.791Z,36.25
2022-10-14T08:55:46.574Z,31.23
2022-10-14T08:58:40.194Z,30.83
2022-10-14T09:01:31.823Z,25.92
2022-10-14T09:04:17.632Z,28.80
2022-10-14T09:07:04.036Z,28.20
2022-10-14T09:10:07.987Z,27.08
2022-10-14T09:12:56.694Z,37.83
2022-10-14T09:15:45.949Z,26.20
2022-10-14T09:18:53.864Z,28.23
2022-10-14T09:21:52.654Z,31.63
2022-10-14T09:24:38.766Z,30.13
2022-10-14T09:27:24.622Z,27.02
2022-10-14T09:30:15.869Z,27.02
2022-10-14T09:33:17.527Z,28.58
2022-10-14T09:36:09.243Z,29.10
2022-10-14T09:38:59.156Z,30.70
2022-10-14T09:41:52.427Z,29.85
2022-10-14T09:44:37.672Z,29.48
2022-10-14T09:47:29.687Z,25.85
2022-10-14T09:50:34.858Z,28.65
2022-10-14T09:53:38.608Z,32.70
2022-10-14T09:56:42.414Z,29.23
2022-10-14T09:59:28.448Z,36.80
2022-10-14T10:02:23.215Z,24.38
2022-10-14T10:05:25.342Z,31.33
2022-10-14T10:08:14.013Z,35.08
2022-10-14T10:11:10.310Z,29.17
2022-10-14T10:13:56.523Z,27.55
2022-10-14T10:16:41.557Z,33.55
2022-10-14T10:19:31.973Z,30.00
2022-10-14T10:22:31.522Z,28.48
2022-10-14T10:25:21.224Z,25.25
2022-10-14T10:31:19.476Z,29.45
2022-10-14T10:34:21.876Z,27.25
2022-10-14T10:37:46.471Z,31.85
2022-10-14T10:40:44.092Z,30.13
2022-10-14T10:43:49.215Z,24.88
2022-10-14T10:46:51.746Z,29.63
2022-10-14T10:58:43.172Z,28.75
2022-10-14T11:02:10.400Z,27.00
2022-10-14T11:05:25.014Z,26.95
2022-10-14T11:12:22.887Z,23.10
2022-10-14T11:15:27.547Z,23.73
2022-10-14T11:18:47.493Z,29.70
2022-10-14T11:22:04.617Z,28.92
2022-10-14T11:25:00.138Z,24.13
2022-10-14T11:27:45.447Z,24.77
2022-10-14T11:30:45.064Z,28.60
2022-10-14T11:33:50.495Z,24.88
2022-10-14T11:37:03.303Z,26.85
2022-10-14T11:39:59.257Z,29.38
2022-10-14T11:43:13.576Z,24.10
2022-10-14T11:46:09.913Z,24.15
2022-10-14T11:49:03.828Z,23.42
2022-10-14T11:51:58.187Z,17.65
2022-10-14T11:55:13.748Z,25.10
2022-10-14T11:58:10.242Z,22.67
2022-10-14T12:01:18.040Z,19.60
2022-10-14T12:04:10.678Z,21.55
2022-10-14T12:07:18.905Z,22.17
2022-10-14T12:10:19.662Z,23.55
2022-10-14T12:13:13.658Z,18.65
2022-10-14T12:16:01.107Z,18.05
2022-10-14T12:18:53.678Z,19.85
2022-10-14T12:22:15.954Z,21.35
2022-10-14T12:25:17.275Z,20.20
2022-10-14T12:28:03.623Z,20.90
2022-10-14T12:30:48.898Z,20.80
2022-10-14T12:34:15.326Z,25.30
2022-10-14T12:37:27.160Z,18.92
2022-10-14T12:40:25.308Z,18.63
2022-10-14T12:43:31.837Z,16.98
2022-10-14T12:46:17.317Z,15.55
2022-10-14T12:49:02.900Z,18.27
2022-10-14T12:51:56.474Z,21.55
2022-10-14T12:54:48.105Z,21.35
2022-10-14T12:57:38.706Z,19.40
2022-10-14T13:00:26.848Z,16.88
2022-10-14T13:03:20.546Z,20.00
2022-10-14T13:06:42.213Z,16.70
2022-10-14T13:09:34.801Z,20.70
2022-10-14T13:12:22.686Z,13.45
2022-10-14T13:15:45.482Z,16.08
2022-10-14T13:18:31.553Z,13.88
2022-10-14T13:21:34.818Z,16.40
2022-10-14T13:24:27.597Z,17.98
2022-10-14T13:27:37.024Z,14.77
2022-10-14T13:30:46.188Z,15.57
2022-10-14T13:33:40.450Z,15.48
2022-10-14T13:36:51.939Z,14.13
2022-10-14T13:39:38.093Z,16.60
2022-10-14T13:42:31.944Z,13.45
2022-10-14T13:45:20.643Z,9.60
2022-10-14T13:48:05.981Z,12.23
2022-10-14T13:50:58.695Z,13.65
2022-10-14T13:54:00.499Z,12.30
2022-10-14T13:57:38.291Z,16.05
2022-10-14T14:00:43.894Z,14.35
2022-10-14T14:03:38.663Z,11.93
2022-10-14T14:06:27.774Z,14.43
2022-10-14T14:09:27.342Z,15.65
2022-10-14T14:12:13.473Z,12.63
2022-10-14T14:15:00.419Z,13.05
2022-10-14T14:17:45.559Z,10.80
2022-10-14T14:20:33.890Z,16.30
2022-10-14T14:23:19.247Z,16.08
2022-10-14T14:26:18.987Z,13.35
2022-10-14T14:29:06.709Z,15.13
2022-10-14T14:32:08.602Z,13.00
2022-10-14T14:34:54.947Z,12.68
2022-10-14T14:37:55.122Z,15.35
2022-10-14T14:40:41.046Z,11.57
2022-10-14T14:43:31.308Z,10.95
2022-10-14T14:46:28.190Z,14.35
2022-10-14T14:49:25.776Z,10.55
2022-10-14T14:52:13.887Z,11.68
2022-10-14T14:54:59.362Z,11.82
2022-10-14T14:57:44.719Z,11.48
2022-10-14T15:00:32.880Z,14.75
2022-10-14T15:03:18.507Z,10.93
2022-10-14T15:06:05.585Z,10.05
2022-10-14T15:08:53.337Z,12.32
2022-10-14T15:12:00.635Z,11.43
2022-10-14T15:14:59.408Z,13.65
2022-10-14T15:17:45.970Z,15.23
2022-10-14T15:20:38.464Z,17.30
2022-10-14T15:24:00.154Z,16.63
2022-10-14T15:26:46.223Z,11.70
2022-10-14T15:29:31.414Z,13.52
2022-10-14T15:32:17.611Z,14.48
2022-10-14T15:35:03.085Z,11.98
2022-10-14T15:37:49.307Z,12.30
2022-10-14T15:40:34.965Z,14.30
2022-10-14T15:43:23.006Z,14.98
2022-10-14T15:46:31.738Z,11.35
2022-10-14T15:49:32.240Z,14.35
2022-10-14T15:52:19.458Z,14.00
2022-10-14T15:55:21.892Z,14.48
2022-10-14T15:58:07.520Z,12.77
2022-10-14T16:00:56.464Z,12.45
2022-10-14T16:03:41.969Z,11.80
2022-10-14T16:06:30.917Z,14.38
2022-10-14T16:09:16.201Z,13.50
2022-10-14T16:12:02.785Z,15.32
2022-10-14T16:14:47.947Z,13.13
2022-10-14T16:17:33.360Z,16.83
2022-10-14T16:20:18.944Z,13.10
2022-10-14T16:23:05.324Z,14.70
2022-10-14T16:25:51.377Z,16.27
2022-10-14T16:28:36.606Z,12.93
2022-10-14T16:31:21.954Z,20.63
2022-10-14T16:34:11.671Z,20.58
2022-10-14T16:36:57.227Z,18.92
2022-10-14T16:39:42.424Z,18.38
2022-10-14T16:42:28.604Z,23.65
2022-10-14T16:45:14.113Z,18.77
2022-10-14T16:47:59.684Z,19.30
2022-10-14T16:50:52.935Z,23.00
2022-10-14T16:53:41.400Z,18.63
2022-10-14T16:56:45.529Z,22.30
2022-10-14T16:59:31.246Z,20.10
2022-10-14T17:02:17.837Z,21.23
2022-10-14T17:05:03.266Z,25.15
2022-10-14T17:07:48.498Z,26.23
2022-10-14T17:10:33.807Z,26.23
2022-10-14T17:13:19.099Z,24.83
2022-10-14T17:16:06.214Z,23.58
2022-10-14T17:18:52.009Z,23.92
2022-10-14T17:21:38.146Z,27.08
2022-10-14T17:24:26.002Z,27.27
2022-10-14T17:27:11.733Z,20.58
2022-10-14T17:29:57.154Z,23.60
2022-10-14T17:32:42.391Z,24.30
2022-10-14T17:35:27.879Z,19.88
2022-10-14T17:38:14.459Z,18.88
2022-10-14T17:41:08.495Z,17.83
2022-10-14T17:43:55.851Z,16.48
2022-10-14T17:46:41.115Z,19.63
2022-10-14T17:49:26.587Z,15.32
2022-10-14T17:52:12.045Z,17.33
2022-10-14T17:54:58.994Z,17.85
2022-10-14T17:57:47.682Z,18.65
2022-10-14T18:00:32.915Z,18.00
2022-10-14T18:03:18.544Z,15.95
2022-10-14T18:06:26.902Z,13.73
2022-10-14T18:09:12.457Z,18.40
2022-10-14T18:12:13.442Z,17.85
2022-10-14T18:14:58.916Z,14.20
2022-10-14T18:17:44.615Z,14.73
2022-10-14T18:20:29.527Z,17.02
2022-10-14T18:23:14.857Z,17.17
2022-10-14T18:26:06.296Z,19.95
2022-10-14T18:28:55.730Z,13.43
2022-10-14T18:32:08.511Z,12.82
2022-10-14T18:34:53.817Z,14.18
2022-10-14T18:37:39.139Z,12.73
2022-10-14T18:40:24.654Z,12.45
2022-10-14T18:43:09.761Z,14.65
2022-10-14T18:46:06.017Z,9.93
2022-10-14T18:48:53.306Z,16.75
2022-10-14T18:51:41.012Z,18.48
2022-10-14T18:54:26.084Z,13.95
2022-10-14T18:57:14.852Z,13.48
2022-10-14T19:00:00.139Z,15.85
2022-10-14T19:02:45.696Z,14.63
2022-10-14T19:05:35.809Z,13.73
2022-10-14T19:08:23.554Z,17.00
2022-10-14T19:11:19.725Z,15.52
2022-10-14T19:14:05.707Z,14.35
2022-10-14T19:16:51.624Z,15.00
2022-10-14T19:19:36.951Z,16.60
2022-10-14T19:22:25.001Z,16.58
2022-10-14T19:25:10.651Z,12.50
2022-10-14T19:27:55.870Z,13.25
2022-10-14T19:30:41.216Z,16.23
2022-10-14T19:33:26.365Z,15.52
2022-10-14T19:36:14.045Z,14.35
2022-10-14T19:39:00.340Z,10.63
2022-10-14T19:41:47.312Z,10.43
2022-10-14T19:47:23.231Z,12.30
2022-10-14T19:50:09.217Z,15.73
2022-10-14T19:52:54.662Z,14.07
2022-10-14T19:55:40.810Z,13.25
2022-10-14T19:58:26.387Z,16.10
2022-10-14T20:01:17.006Z,16.20
2022-10-14T20:04:02.972Z,13.13
2022-10-14T20:06:48.323Z,13.93
2022-10-14T20:09:34.581Z,16.10
2022-10-14T20:12:20.795Z,13.60
2022-10-14T20:15:07.580Z,14.23
